sensor_id;sensor_type;location;lat;lon;timestamp;P1;durP1;ratioP1;P2;durP2;ratioP2
4521;SDS011;2273;48.464;11.926;2022-10-13T00:01:46;19.20;;;16.07;;
4521;SDS011;2273;48.464;11.926;2022-10-13T00:04:11;18.83;;;15.77;;
4521;SDS011;2273;48.464;11.926;2022-10-13T00:06:37;19.67;;;15.90;;
4521;SDS011;2273;48.464;11.926;2022-10-13T00:09:03;23.40;;;17.97;;
4521;SDS011;2273;48.464;11.926;2022-10-13T00:11:29;22.50;;;16.10;;
4521;SDS011;2273;48.464;11.926;2022-10-13T00:13:56;19.97;;;15.97;;
4521;SDS011;2273;48.464;11.926;2022-10-13T00:16:23;33.50;;;17.33;;
4521;SDS011;2273;48.464;11.926;2022-10-13T00:18:48;26.00;;;16.50;;
4521;SDS011;2273;48.464;11.926;2022-10-13T00:21:15;23.00;;;16.50;;
4521;SDS011;2273;48.464;11.926;2022-10-13T00:23:44;21.40;;;16.63;;
4521;SDS011;2273;48.464;11.926;2022-10-13T00:26:11;19.63;;;15.17;;
4521;SDS011;2273;48.464;11.926;2022-10-13T00:28:38;20.50;;;15.63;;
4521;SDS011;2273;48.464;11.926;2022-10-13T00:34:00;40.83;;;17.10;;
4521;SDS011;2273;48.464;11.926;2022-10-13T00:36:26;18.80;;;14.67;;
4521;SDS011;2273;48.464;11.926;2022-10-13T00:38:52;19.63;;;15.60;;
4521;SDS011;2273;48.464;11.926;2022-10-13T00:41:18;69.17;;;17.47;;
4521;SDS011;2273;48.464;11.926;2022-10-13T00:46:17;22.70;;;15.73;;
4521;SDS011;2273;48.464;11.926;2022-10-13T00:48:44;66.00;;;18.40;;
4521;SDS011;2273;48.464;11.926;2022-10-13T00:51:11;19.60;;;14.00;;
4521;SDS011;2273;48.464;11.926;2022-10-13T00:53:38;20.33;;;15.03;;
4521;SDS011;2273;48.464;11.926;2022-10-13T00:56:04;26.23;;;15.30;;
4521;SDS011;2273;48.464;11.926;2022-10-13T00:58:32;28.93;;;14.30;;
4521;SDS011;2273;48.464;11.926;2022-10-13T01:00:59;22.33;;;14.50;;
4521;SDS011;2273;48.464;11.926;2022-10-13T01:03:25;95.53;;;16.33;;
4521;SDS011;2273;48.464;11.926;2022-10-13T01:05:53;108.93;;;16.63;;
4521;SDS011;2273;48.464;11.926;2022-10-13T01:08:20;25.23;;;14.00;;
4521;SDS011;2273;48.464;11.926;2022-10-13T01:10:59;18.63;;;13.87;;
4521;SDS011;2273;48.464;11.926;2022-10-13T01:13:47;16.77;;;13.13;;
4521;SDS011;2273;48.464;11.926;2022-10-13T01:16:21;25.57;;;11.93;;
4521;SDS011;2273;48.464;11.926;2022-10-13T01:19:10;15.70;;;12.57;;
4521;SDS011;2273;48.464;11.926;2022-10-13T01:21:44;18.20;;;14.47;;
4521;SDS011;2273;48.464;11.926;2022-10-13T01:24:27;19.37;;;14.50;;
4521;SDS011;2273;48.464;11.926;2022-10-13T01:32:56;20.37;;;15.93;;
4521;SDS011;2273;48.464;11.926;2022-10-13T01:38:07;23.67;;;16.33;;
4521;SDS011;2273;48.464;11.926;2022-10-13T01:43:36;17.70;;;13.47;;
4521;SDS011;2273;48.464;11.926;2022-10-13T01:46:05;17.50;;;14.33;;
4521;SDS011;2273;48.464;11.926;2022-10-13T01:48:35;19.10;;;13.83;;
4521;SDS011;2273;48.464;11.926;2022-10-13T01:51:02;25.00;;;15.40;;
4521;SDS011;2273;48.464;11.926;2022-10-13T01:53:28;21.20;;;16.10;;
4521;SDS011;2273;48.464;11.926;2022-10-13T01:55:55;19.13;;;13.83;;
4521;SDS011;2273;48.464;11.926;2022-10-13T01:58:24;25.13;;;16.67;;
4521;SDS011;2273;48.464;11.926;2022-10-13T02:00:55;23.30;;;16.50;;
4521;SDS011;2273;48.464;11.926;2022-10-13T02:03:47;23.03;;;15.47;;
4521;SDS011;2273;48.464;11.926;2022-10-13T02:06:27;19.13;;;14.87;;
4521;SDS011;2273;48.464;11.926;2022-10-13T02:08:56;19.20;;;14.70;;
4521;SDS011;2273;48.464;11.926;2022-10-13T02:11:25;16.77;;;13.33;;
4521;SDS011;2273;48.464;11.926;2022-10-13T02:13:53;19.37;;;14.83;;
4521;SDS011;2273;48.464;11.926;2022-10-13T02:16:20;19.87;;;15.83;;
4521;SDS011;2273;48.464;11.926;2022-10-13T02:18:47;18.00;;;14.40;;
4521;SDS011;2273;48.464;11.926;2022-10-13T02:21:14;26.00;;;17.03;;
4521;SDS011;2273;48.464;11.926;2022-10-13T02:23:41;30.53;;;16.20;;
4521;SDS011;2273;48.464;11.926;2022-10-13T02:26:07;20.00;;;14.53;;
4521;SDS011;2273;48.464;11.926;2022-10-13T02:28:33;20.53;;;15.50;;
4521;SDS011;2273;48.464;11.926;2022-10-13T02:31:01;30.23;;;17.07;;
4521;SDS011;2273;48.464;11.926;2022-10-13T02:33:26;31.00;;;17.27;;
4521;SDS011;2273;48.464;11.926;2022-10-13T02:35:51;49.57;;;16.70;;
4521;SDS011;2273;48.464;11.926;2022-10-13T02:38:17;52.97;;;18.73;;
4521;SDS011;2273;48.464;11.926;2022-10-13T02:40:42;20.30;;;15.00;;
4521;SDS011;2273;48.464;11.926;2022-10-13T02:43:08;47.47;;;17.80;;
4521;SDS011;2273;48.464;11.926;2022-10-13T02:45:33;59.13;;;16.60;;
4521;SDS011;2273;48.464;11.926;2022-10-13T02:47:59;138.13;;;17.20;;
4521;SDS011;2273;48.464;11.926;2022-10-13T02:50:24;36.83;;;16.20;;
4521;SDS011;2273;48.464;11.926;2022-10-13T02:52:50;24.40;;;15.13;;
4521;SDS011;2273;48.464;11.926;2022-10-13T02:55:15;22.97;;;17.20;;
4521;SDS011;2273;48.464;11.926;2022-10-13T02:57:42;19.40;;;15.10;;
4521;SDS011;2273;48.464;11.926;2022-10-13T03:00:07;21.13;;;15.60;;
4521;SDS011;2273;48.464;11.926;2022-10-13T03:02:33;24.00;;;15.20;;
4521;SDS011;2273;48.464;11.926;2022-10-13T03:04:59;52.17;;;16.53;;
4521;SDS011;2273;48.464;11.926;2022-10-13T03:07:24;29.60;;;16.57;;
4521;SDS011;2273;48.464;11.926;2022-10-13T03:09:50;23.30;;;16.13;;
4521;SDS011;2273;48.464;11.926;2022-10-13T03:12:16;24.10;;;16.67;;
4521;SDS011;2273;48.464;11.926;2022-10-13T03:14:41;39.80;;;17.50;;
4521;SDS011;2273;48.464;11.926;2022-10-13T03:17:07;25.80;;;17.07;;
4521;SDS011;2273;48.464;11.926;2022-10-13T03:19:33;22.67;;;16.90;;
4521;SDS011;2273;48.464;11.926;2022-10-13T03:21:58;50.47;;;18.33;;
4521;SDS011;2273;48.464;11.926;2022-10-13T03:24:23;26.83;;;16.60;;
4521;SDS011;2273;48.464;11.926;2022-10-13T03:26:49;19.87;;;14.93;;
4521;SDS011;2273;48.464;11.926;2022-10-13T03:29:18;66.83;;;17.77;;
4521;SDS011;2273;48.464;11.926;2022-10-13T03:31:43;101.37;;;18.90;;
4521;SDS011;2273;48.464;11.926;2022-10-13T03:34:09;31.47;;;15.30;;
4521;SDS011;2273;48.464;11.926;2022-10-13T03:36:35;57.20;;;17.10;;
4521;SDS011;2273;48.464;11.926;2022-10-13T03:39:00;63.50;;;17.50;;
4521;SDS011;2273;48.464;11.926;2022-10-13T03:41:26;77.30;;;16.60;;
4521;SDS011;2273;48.464;11.926;2022-10-13T03:43:51;62.80;;;17.13;;
4521;SDS011;2273;48.464;11.926;2022-10-13T03:46:17;80.83;;;18.60;;
4521;SDS011;2273;48.464;11.926;2022-10-13T03:48:43;35.13;;;15.60;;
4521;SDS011;2273;48.464;11.926;2022-10-13T03:51:11;53.40;;;15.97;;
4521;SDS011;2273;48.464;11.926;2022-10-13T03:53:43;34.43;;;17.67;;
4521;SDS011;2273;48.464;11.926;2022-10-13T03:56:10;24.17;;;15.00;;
4521;SDS011;2273;48.464;11.926;2022-10-13T03:58:43;68.67;;;16.77;;
4521;SDS011;2273;48.464;11.926;2022-10-13T04:01:09;56.90;;;15.77;;
4521;SDS011;2273;48.464;11.926;2022-10-13T04:03:35;26.43;;;16.67;;
4521;SDS011;2273;48.464;11.926;2022-10-13T04:06:01;26.97;;;16.03;;
4521;SDS011;2273;48.464;11.926;2022-10-13T04:08:28;24.17;;;16.43;;
4521;SDS011;2273;48.464;11.926;2022-10-13T04:11:04;36.70;;;16.30;;
4521;SDS011;2273;48.464;11.926;2022-10-13T04:13:31;28.70;;;14.90;;
4521;SDS011;2273;48.464;11.926;2022-10-13T04:16:08;26.43;;;16.17;;
4521;SDS011;2273;48.464;11.926;2022-10-13T04:18:36;22.17;;;15.83;;
4521;SDS011;2273;48.464;11.926;2022-10-13T04:21:06;19.13;;;14.30;;
4521;SDS011;2273;48.464;11.926;2022-10-13T04:23:33;27.03;;;16.47;;
4521;SDS011;2273;48.464;11.926;2022-10-13T04:25:58;21.67;;;14.80;;
4521;SDS011;2273;48.464;11.926;2022-10-13T04:28:23;23.57;;;16.00;;
4521;SDS011;2273;48.464;11.926;2022-10-13T04:30:49;24.40;;;16.90;;
4521;SDS011;2273;48.464;11.926;2022-10-13T04:33:14;39.53;;;17.30;;
4521;SDS011;2273;48.464;11.926;2022-10-13T04:35:40;34.00;;;16.87;;
4521;SDS011;2273;48.464;11.926;2022-10-13T04:38:06;22.13;;;16.50;;
4521;SDS011;2273;48.464;11.926;2022-10-13T04:40:32;83.43;;;18.50;;
4521;SDS011;2273;48.464;11.926;2022-10-13T04:42:58;27.20;;;16.60;;
4521;SDS011;2273;48.464;11.926;2022-10-13T04:45:24;29.27;;;16.57;;
4521;SDS011;2273;48.464;11.926;2022-10-13T04:47:50;24.70;;;16.30;;
4521;SDS011;2273;48.464;11.926;2022-10-13T04:50:20;23.23;;;17.57;;
4521;SDS011;2273;48.464;11.926;2022-10-13T04:52:45;23.33;;;15.80;;
4521;SDS011;2273;48.464;11.926;2022-10-13T04:55:11;26.53;;;15.70;;
4521;SDS011;2273;48.464;11.926;2022-10-13T04:57:37;22.00;;;15.30;;
4521;SDS011;2273;48.464;11.926;2022-10-13T05:00:03;21.90;;;15.80;;
4521;SDS011;2273;48.464;11.926;2022-10-13T05:02:35;33.47;;;19.23;;
4521;SDS011;2273;48.464;11.926;2022-10-13T05:05:01;30.70;;;20.10;;
4521;SDS011;2273;48.464;11.926;2022-10-13T05:07:27;35.83;;;20.57;;
4521;SDS011;2273;48.464;11.926;2022-10-13T05:09:54;28.73;;;18.57;;
4521;SDS011;2273;48.464;11.926;2022-10-13T05:12:20;34.00;;;21.57;;
4521;SDS011;2273;48.464;11.926;2022-10-13T05:14:46;34.97;;;21.50;;
4521;SDS011;2273;48.464;11.926;2022-10-13T05:17:12;39.47;;;18.93;;
4521;SDS011;2273;48.464;11.926;2022-10-13T05:19:37;25.83;;;16.00;;
4521;SDS011;2273;48.464;11.926;2022-10-13T05:22:03;29.47;;;16.97;;
4521;SDS011;2273;48.464;11.926;2022-10-13T05:24:28;25.70;;;15.27;;
4521;SDS011;2273;48.464;11.926;2022-10-13T05:27:04;32.00;;;16.27;;
4521;SDS011;2273;48.464;11.926;2022-10-13T05:29:30;25.23;;;16.40;;
4521;SDS011;2273;48.464;11.926;2022-10-13T05:31:56;28.60;;;18.60;;
4521;SDS011;2273;48.464;11.926;2022-10-13T05:34:21;26.63;;;16.67;;
4521;SDS011;2273;48.464;11.926;2022-10-13T05:36:47;23.03;;;15.97;;
4521;SDS011;2273;48.464;11.926;2022-10-13T05:39:12;28.13;;;15.40;;
4521;SDS011;2273;48.464;11.926;2022-10-13T05:41:38;22.63;;;15.53;;
4521;SDS011;2273;48.464;11.926;2022-10-13T05:44:08;25.57;;;15.90;;
4521;SDS011;2273;48.464;11.926;2022-10-13T05:46:38;25.23;;;15.70;;
4521;SDS011;2273;48.464;11.926;2022-10-13T05:49:03;26.57;;;15.80;;
4521;SDS011;2273;48.464;11.926;2022-10-13T05:51:29;26.23;;;14.90;;
4521;SDS011;2273;48.464;11.926;2022-10-13T05:54:05;28.20;;;16.07;;
4521;SDS011;2273;48.464;11.926;2022-10-13T05:56:39;36.10;;;17.30;;
4521;SDS011;2273;48.464;11.926;2022-10-13T05:59:07;23.53;;;16.10;;
4521;SDS011;2273;48.464;11.926;2022-10-13T06:01:35;23.53;;;16.07;;
4521;SDS011;2273;48.464;11.926;2022-10-13T06:04:03;24.93;;;16.03;;
4521;SDS011;2273;48.464;11.926;2022-10-13T06:06:31;25.30;;;16.80;;
4521;SDS011;2273;48.464;11.926;2022-10-13T06:08:57;24.13;;;15.93;;
4521;SDS011;2273;48.464;11.926;2022-10-13T06:11:23;26.83;;;16.43;;
4521;SDS011;2273;48.464;11.926;2022-10-13T06:13:48;26.37;;;14.70;;
4521;SDS011;2273;48.464;11.926;2022-10-13T06:16:14;37.47;;;17.40;;
4521;SDS011;2273;48.464;11.926;2022-10-13T06:18:39;33.90;;;15.67;;
4521;SDS011;2273;48.464;11.926;2022-10-13T06:21:05;22.60;;;14.07;;
4521;SDS011;2273;48.464;11.926;2022-10-13T06:23:30;33.70;;;15.53;;
4521;SDS011;2273;48.464;11.926;2022-10-13T06:25:55;25.97;;;15.80;;
4521;SDS011;2273;48.464;11.926;2022-10-13T06:28:21;24.00;;;14.80;;
4521;SDS011;2273;48.464;11.926;2022-10-13T06:30:47;30.43;;;15.97;;
4521;SDS011;2273;48.464;11.926;2022-10-13T06:33:19;23.00;;;14.93;;
4521;SDS011;2273;48.464;11.926;2022-10-13T06:35:45;23.23;;;14.53;;
4521;SDS011;2273;48.464;11.926;2022-10-13T06:38:11;23.60;;;15.10;;
4521;SDS011;2273;48.464;11.926;2022-10-13T06:40:40;24.40;;;15.87;;
4521;SDS011;2273;48.464;11.926;2022-10-13T06:43:06;33.30;;;15.70;;
4521;SDS011;2273;48.464;11.926;2022-10-13T06:45:39;26.50;;;15.87;;
4521;SDS011;2273;48.464;11.926;2022-10-13T06:48:04;27.40;;;15.27;;
4521;SDS011;2273;48.464;11.926;2022-10-13T06:50:30;27.23;;;15.80;;
4521;SDS011;2273;48.464;11.926;2022-10-13T06:52:56;33.73;;;16.53;;
4521;SDS011;2273;48.464;11.926;2022-10-13T06:55:21;35.47;;;16.70;;
4521;SDS011;2273;48.464;11.926;2022-10-13T06:57:47;28.53;;;16.40;;
4521;SDS011;2273;48.464;11.926;2022-10-13T07:00:12;31.73;;;17.90;;
4521;SDS011;2273;48.464;11.926;2022-10-13T07:02:38;32.10;;;17.93;;
4521;SDS011;2273;48.464;11.926;2022-10-13T07:05:03;37.23;;;17.37;;
4521;SDS011;2273;48.464;11.926;2022-10-13T07:07:29;31.03;;;17.67;;
4521;SDS011;2273;48.464;11.926;2022-10-13T07:09:54;31.20;;;18.90;;
4521;SDS011;2273;48.464;11.926;2022-10-13T07:12:20;36.50;;;18.17;;
4521;SDS011;2273;48.464;11.926;2022-10-13T07:14:46;34.10;;;17.27;;
4521;SDS011;2273;48.464;11.926;2022-10-13T07:17:12;35.27;;;19.40;;
4521;SDS011;2273;48.464;11.926;2022-10-13T07:19:37;37.10;;;18.93;;
4521;SDS011;2273;48.464;11.926;2022-10-13T07:22:03;31.30;;;18.20;;
4521;SDS011;2273;48.464;11.926;2022-10-13T07:24:28;34.30;;;16.90;;
4521;SDS011;2273;48.464;11.926;2022-10-13T07:26:53;32.03;;;17.40;;
4521;SDS011;2273;48.464;11.926;2022-10-13T07:29:19;32.37;;;17.47;;
4521;SDS011;2273;48.464;11.926;2022-10-13T07:31:45;25.77;;;16.53;;
4521;SDS011;2273;48.464;11.926;2022-10-13T07:34:10;25.00;;;16.43;;
4521;SDS011;2273;48.464;11.926;2022-10-13T07:36:36;26.40;;;16.10;;
4521;SDS011;2273;48.464;11.926;2022-10-13T07:39:05;26.50;;;14.80;;
4521;SDS011;2273;48.464;11.926;2022-10-13T07:41:31;29.47;;;16.97;;
4521;SDS011;2273;48.464;11.926;2022-10-13T07:43:57;31.60;;;16.77;;
4521;SDS011;2273;48.464;11.926;2022-10-13T07:46:22;30.23;;;15.50;;
4521;SDS011;2273;48.464;11.926;2022-10-13T07:48:48;25.73;;;13.80;;
4521;SDS011;2273;48.464;11.926;2022-10-13T07:51:14;26.27;;;15.77;;
4521;SDS011;2273;48.464;11.926;2022-10-13T07:53:40;28.80;;;16.43;;
4521;SDS011;2273;48.464;11.926;2022-10-13T07:56:07;23.57;;;14.83;;
4521;SDS011;2273;48.464;11.926;2022-10-13T07:58:37;25.47;;;15.80;;
4521;SDS011;2273;48.464;11.926;2022-10-13T08:01:05;22.90;;;14.87;;
4521;SDS011;2273;48.464;11.926;2022-10-13T08:03:36;23.20;;;14.60;;
4521;SDS011;2273;48.464;11.926;2022-10-13T08:06:02;25.53;;;15.77;;
4521;SDS011;2273;48.464;11.926;2022-10-13T08:08:28;31.63;;;16.83;;
4521;SDS011;2273;48.464;11.926;2022-10-13T08:10:54;46.90;;;18.97;;
4521;SDS011;2273;48.464;11.926;2022-10-13T08:13:26;26.93;;;15.40;;
4521;SDS011;2273;48.464;11.926;2022-10-13T08:15:51;21.80;;;14.90;;
4521;SDS011;2273;48.464;11.926;2022-10-13T08:18:17;23.67;;;16.30;;
4521;SDS011;2273;48.464;11.926;2022-10-13T08:20:43;22.17;;;15.20;;
4521;SDS011;2273;48.464;11.926;2022-10-13T08:23:09;22.87;;;15.90;;
4521;SDS011;2273;48.464;11.926;2022-10-13T08:25:39;29.80;;;16.20;;
4521;SDS011;2273;48.464;11.926;2022-10-13T08:30:46;27.13;;;17.00;;
4521;SDS011;2273;48.464;11.926;2022-10-13T08:33:12;23.70;;;16.10;;
4521;SDS011;2273;48.464;11.926;2022-10-13T08:35:37;33.77;;;16.87;;
4521;SDS011;2273;48.464;11.926;2022-10-13T08:38:03;19.80;;;15.10;;
4521;SDS011;2273;48.464;11.926;2022-10-13T08:40:28;28.40;;;14.93;;
4521;SDS011;2273;48.464;11.926;2022-10-13T08:42:54;27.70;;;15.10;;
4521;SDS011;2273;48.464;11.926;2022-10-13T08:45:29;27.77;;;16.87;;
4521;SDS011;2273;48.464;11.926;2022-10-13T08:47:59;26.63;;;16.13;;
4521;SDS011;2273;48.464;11.926;2022-10-13T08:50:32;26.10;;;17.00;;
4521;SDS011;2273;48.464;11.926;2022-10-13T08:53:04;24.43;;;15.80;;
4521;SDS011;2273;48.464;11.926;2022-10-13T08:55:39;23.20;;;15.90;;
4521;SDS011;2273;48.464;11.926;2022-10-13T08:58:26;25.33;;;16.40;;
4521;SDS011;2273;48.464;11.926;2022-10-13T09:06:19;26.63;;;16.10;;
4521;SDS011;2273;48.464;11.926;2022-10-13T09:08:53;26.80;;;17.23;;
4521;SDS011;2273;48.464;11.926;2022-10-13T09:11:20;30.00;;;15.53;;
4521;SDS011;2273;48.464;11.926;2022-10-13T09:13:46;23.50;;;16.27;;
4521;SDS011;2273;48.464;11.926;2022-10-13T09:16:12;28.00;;;17.67;;
4521;SDS011;2273;48.464;11.926;2022-10-13T09:18:37;36.20;;;16.77;;
4521;SDS011;2273;48.464;11.926;2022-10-13T09:21:19;25.90;;;15.60;;
4521;SDS011;2273;48.464;11.926;2022-10-13T09:23:48;22.60;;;17.10;;
4521;SDS011;2273;48.464;11.926;2022-10-13T09:26:16;25.43;;;17.07;;
4521;SDS011;2273;48.464;11.926;2022-10-13T09:28:44;26.57;;;17.43;;
4521;SDS011;2273;48.464;11.926;2022-10-13T09:36:24;25.23;;;16.67;;
4521;SDS011;2273;48.464;11.926;2022-10-13T09:39:04;25.53;;;16.67;;
4521;SDS011;2273;48.464;11.926;2022-10-13T09:41:37;22.40;;;15.40;;
4521;SDS011;2273;48.464;11.926;2022-10-13T09:44:11;27.97;;;17.33;;
4521;SDS011;2273;48.464;11.926;2022-10-13T09:46:45;27.53;;;16.90;;
4521;SDS011;2273;48.464;11.926;2022-10-13T09:49:29;29.20;;;17.60;;
4521;SDS011;2273;48.464;11.926;2022-10-13T09:52:16;35.20;;;19.33;;
4521;SDS011;2273;48.464;11.926;2022-10-13T09:54:55;27.37;;;18.00;;
4521;SDS011;2273;48.464;11.926;2022-10-13T09:57:29;29.47;;;17.03;;
4521;SDS011;2273;48.464;11.926;2022-10-13T10:00:08;35.77;;;17.80;;
4521;SDS011;2273;48.464;11.926;2022-10-13T10:05:48;24.20;;;16.47;;
4521;SDS011;2273;48.464;11.926;2022-10-13T10:10:55;29.23;;;16.90;;
4521;SDS011;2273;48.464;11.926;2022-10-13T10:13:23;27.07;;;16.00;;
4521;SDS011;2273;48.464;11.926;2022-10-13T10:15:57;41.00;;;18.47;;
4521;SDS011;2273;48.464;11.926;2022-10-13T10:18:48;39.30;;;17.17;;
4521;SDS011;2273;48.464;11.926;2022-10-13T10:24:04;28.17;;;17.33;;
4521;SDS011;2273;48.464;11.926;2022-10-13T10:26:44;29.63;;;17.60;;
4521;SDS011;2273;48.464;11.926;2022-10-13T10:29:18;29.17;;;17.87;;
4521;SDS011;2273;48.464;11.926;2022-10-13T10:31:51;32.20;;;17.80;;
4521;SDS011;2273;48.464;11.926;2022-10-13T10:34:30;26.50;;;17.00;;
4521;SDS011;2273;48.464;11.926;2022-10-13T10:37:05;42.83;;;17.70;;
4521;SDS011;2273;48.464;11.926;2022-10-13T10:39:45;31.43;;;18.40;;
4521;SDS011;2273;48.464;11.926;2022-10-13T10:45:12;33.07;;;17.37;;
4521;SDS011;2273;48.464;11.926;2022-10-13T10:47:48;24.93;;;17.03;;
4521;SDS011;2273;48.464;11.926;2022-10-13T10:50:18;28.77;;;16.27;;
4521;SDS011;2273;48.464;11.926;2022-10-13T10:55:31;25.77;;;16.97;;
4521;SDS011;2273;48.464;11.926;2022-10-13T10:58:10;28.37;;;15.63;;
4521;SDS011;2273;48.464;11.926;2022-10-13T11:01:02;25.07;;;15.20;;
4521;SDS011;2273;48.464;11.926;2022-10-13T11:03:43;28.33;;;16.83;;
4521;SDS011;2273;48.464;11.926;2022-10-13T11:06:32;25.47;;;14.83;;
4521;SDS011;2273;48.464;11.926;2022-10-13T11:08:59;29.43;;;16.97;;
4521;SDS011;2273;48.464;11.926;2022-10-13T11:13:52;29.07;;;16.70;;
4521;SDS011;2273;48.464;11.926;2022-10-13T11:16:26;23.60;;;15.87;;
4521;SDS011;2273;48.464;11.926;2022-10-13T11:21:26;24.33;;;15.60;;
4521;SDS011;2273;48.464;11.926;2022-10-13T11:37:50;26.23;;;15.13;;
4521;SDS011;2273;48.464;11.926;2022-10-13T11:45:46;28.80;;;18.03;;
4521;SDS011;2273;48.464;11.926;2022-10-13T11:48:28;25.20;;;14.57;;
4521;SDS011;2273;48.464;11.926;2022-10-13T11:51:06;24.10;;;14.73;;
4521;SDS011;2273;48.464;11.926;2022-10-13T11:53:41;24.63;;;15.10;;
4521;SDS011;2273;48.464;11.926;2022-10-13T11:56:32;22.70;;;14.77;;
4521;SDS011;2273;48.464;11.926;2022-10-13T11:59:21;23.03;;;12.90;;
4521;SDS011;2273;48.464;11.926;2022-10-13T12:01:51;24.87;;;15.47;;
4521;SDS011;2273;48.464;11.926;2022-10-13T12:04:22;23.77;;;13.17;;
4521;SDS011;2273;48.464;11.926;2022-10-13T12:06:57;24.43;;;14.17;;
4521;SDS011;2273;48.464;11.926;2022-10-13T12:09:25;22.10;;;15.17;;
4521;SDS011;2273;48.464;11.926;2022-10-13T12:11:58;24.17;;;13.30;;
4521;SDS011;2273;48.464;11.926;2022-10-13T12:14:28;26.13;;;15.47;;
4521;SDS011;2273;48.464;11.926;2022-10-13T12:17:21;27.87;;;15.57;;
4521;SDS011;2273;48.464;11.926;2022-10-13T12:19:47;22.80;;;13.83;;
4521;SDS011;2273;48.464;11.926;2022-10-13T12:22:14;26.33;;;14.67;;
4521;SDS011;2273;48.464;11.926;2022-10-13T12:24:40;28.70;;;14.43;;
4521;SDS011;2273;48.464;11.926;2022-10-13T12:30:22;25.23;;;14.67;;
4521;SDS011;2273;48.464;11.926;2022-10-13T12:32:53;26.87;;;14.17;;
4521;SDS011;2273;48.464;11.926;2022-10-13T12:35:22;21.77;;;13.43;;
4521;SDS011;2273;48.464;11.926;2022-10-13T12:38:02;27.67;;;14.73;;
4521;SDS011;2273;48.464;11.926;2022-10-13T12:40:33;32.23;;;14.60;;
4521;SDS011;2273;48.464;11.926;2022-10-13T12:42:59;23.37;;;15.33;;
4521;SDS011;2273;48.464;11.926;2022-10-13T12:45:25;24.37;;;13.40;;
4521;SDS011;2273;48.464;11.926;2022-10-13T12:47:56;21.87;;;13.30;;
4521;SDS011;2273;48.464;11.926;2022-10-13T12:52:49;28.90;;;15.50;;
4521;SDS011;2273;48.464;11.926;2022-10-13T12:55:17;26.33;;;14.37;;
4521;SDS011;2273;48.464;11.926;2022-10-13T12:57:44;25.37;;;14.57;;
4521;SDS011;2273;48.464;11.926;2022-10-13T13:02:55;29.37;;;15.47;;
4521;SDS011;2273;48.464;11.926;2022-10-13T13:05:28;26.53;;;15.00;;
4521;SDS011;2273;48.464;11.926;2022-10-13T13:08:23;28.60;;;15.17;;
4521;SDS011;2273;48.464;11.926;2022-10-13T13:10:56;25.37;;;14.83;;
4521;SDS011;2273;48.464;11.926;2022-10-13T13:13:26;21.30;;;14.47;;
4521;SDS011;2273;48.464;11.926;2022-10-13T13:15:51;25.63;;;14.57;;
4521;SDS011;2273;48.464;11.926;2022-10-13T13:18:31;30.70;;;16.17;;
4521;SDS011;2273;48.464;11.926;2022-10-13T13:21:00;28.47;;;15.87;;
4521;SDS011;2273;48.464;11.926;2022-10-13T13:23:26;28.00;;;15.37;;
4521;SDS011;2273;48.464;11.926;2022-10-13T13:26:02;28.27;;;14.63;;
4521;SDS011;2273;48.464;11.926;2022-10-13T13:28:28;29.80;;;14.77;;
4521;SDS011;2273;48.464;11.926;2022-10-13T13:30:55;24.40;;;15.13;;
4521;SDS011;2273;48.464;11.926;2022-10-13T13:33:21;20.90;;;13.63;;
4521;SDS011;2273;48.464;11.926;2022-10-13T13:35:48;29.20;;;14.37;;
4521;SDS011;2273;48.464;11.926;2022-10-13T13:38:14;24.33;;;15.30;;
4521;SDS011;2273;48.464;11.926;2022-10-13T13:40:39;24.77;;;12.37;;
4521;SDS011;2273;48.464;11.926;2022-10-13T13:43:05;22.13;;;12.43;;
4521;SDS011;2273;48.464;11.926;2022-10-13T13:45:30;22.10;;;11.30;;
4521;SDS011;2273;48.464;11.926;2022-10-13T13:48:00;21.90;;;11.67;;
4521;SDS011;2273;48.464;11.926;2022-10-13T13:50:26;22.53;;;12.90;;
4521;SDS011;2273;48.464;11.926;2022-10-13T13:52:56;21.00;;;10.70;;
4521;SDS011;2273;48.464;11.926;2022-10-13T13:55:21;17.47;;;11.57;;
4521;SDS011;2273;48.464;11.926;2022-10-13T13:57:47;23.30;;;12.23;;
4521;SDS011;2273;48.464;11.926;2022-10-13T14:00:13;18.80;;;10.20;;
4521;SDS011;2273;48.464;11.926;2022-10-13T14:02:42;16.43;;;10.63;;
4521;SDS011;2273;48.464;11.926;2022-10-13T14:05:08;17.70;;;11.43;;
4521;SDS011;2273;48.464;11.926;2022-10-13T14:07:34;18.83;;;10.00;;
4521;SDS011;2273;48.464;11.926;2022-10-13T14:09:59;12.73;;;9.60;;
4521;SDS011;2273;48.464;11.926;2022-10-13T14:12:25;22.93;;;10.60;;
4521;SDS011;2273;48.464;11.926;2022-10-13T14:14:50;30.57;;;11.50;;
4521;SDS011;2273;48.464;11.926;2022-10-13T14:17:20;27.77;;;11.53;;
4521;SDS011;2273;48.464;11.926;2022-10-13T14:19:45;21.90;;;11.37;;
4521;SDS011;2273;48.464;11.926;2022-10-13T14:22:11;19.27;;;9.27;;
4521;SDS011;2273;48.464;11.926;2022-10-13T14:24:36;16.20;;;10.10;;
4521;SDS011;2273;48.464;11.926;2022-10-13T14:27:02;16.13;;;9.17;;
4521;SDS011;2273;48.464;11.926;2022-10-13T14:29:28;15.00;;;10.20;;
4521;SDS011;2273;48.464;11.926;2022-10-13T14:31:53;19.70;;;10.40;;
4521;SDS011;2273;48.464;11.926;2022-10-13T14:34:19;29.53;;;10.73;;
4521;SDS011;2273;48.464;11.926;2022-10-13T14:36:45;24.17;;;10.70;;
4521;SDS011;2273;48.464;11.926;2022-10-13T14:39:10;17.90;;;10.43;;
4521;SDS011;2273;48.464;11.926;2022-10-13T14:41:36;18.90;;;10.20;;
4521;SDS011;2273;48.464;11.926;2022-10-13T14:44:03;19.37;;;9.10;;
4521;SDS011;2273;48.464;11.926;2022-10-13T14:46:29;20.53;;;9.87;;
4521;SDS011;2273;48.464;11.926;2022-10-13T14:48:55;19.10;;;9.63;;
4521;SDS011;2273;48.464;11.926;2022-10-13T14:51:23;18.50;;;9.67;;
4521;SDS011;2273;48.464;11.926;2022-10-13T14:53:49;22.47;;;10.37;;
4521;SDS011;2273;48.464;11.926;2022-10-13T14:58:48;20.60;;;10.33;;
4521;SDS011;2273;48.464;11.926;2022-10-13T15:01:14;16.50;;;10.50;;
4521;SDS011;2273;48.464;11.926;2022-10-13T15:03:41;18.83;;;9.60;;
4521;SDS011;2273;48.464;11.926;2022-10-13T15:06:08;23.20;;;11.40;;
4521;SDS011;2273;48.464;11.926;2022-10-13T15:08:37;18.93;;;9.53;;
4521;SDS011;2273;48.464;11.926;2022-10-13T15:11:02;19.53;;;9.20;;
4521;SDS011;2273;48.464;11.926;2022-10-13T15:13:28;21.30;;;11.40;;
4521;SDS011;2273;48.464;11.926;2022-10-13T15:15:55;19.57;;;10.90;;
4521;SDS011;2273;48.464;11.926;2022-10-13T15:18:21;27.60;;;14.60;;
4521;SDS011;2273;48.464;11.926;2022-10-13T15:20:47;28.37;;;12.93;;
4521;SDS011;2273;48.464;11.926;2022-10-13T15:23:13;22.20;;;12.60;;
4521;SDS011;2273;48.464;11.926;2022-10-13T15:25:39;17.70;;;11.13;;
4521;SDS011;2273;48.464;11.926;2022-10-13T15:28:16;22.27;;;11.57;;
4521;SDS011;2273;48.464;11.926;2022-10-13T15:30:41;16.03;;;10.33;;
4521;SDS011;2273;48.464;11.926;2022-10-13T15:33:07;17.13;;;10.37;;
4521;SDS011;2273;48.464;11.926;2022-10-13T15:35:32;16.97;;;9.80;;
4521;SDS011;2273;48.464;11.926;2022-10-13T15:37:58;15.20;;;9.40;;
4521;SDS011;2273;48.464;11.926;2022-10-13T15:40:23;16.57;;;9.80;;
4521;SDS011;2273;48.464;11.926;2022-10-13T15:42:48;20.87;;;9.80;;
4521;SDS011;2273;48.464;11.926;2022-10-13T15:45:14;16.23;;;9.30;;
4521;SDS011;2273;48.464;11.926;2022-10-13T15:47:39;23.63;;;11.87;;
4521;SDS011;2273;48.464;11.926;2022-10-13T15:50:05;17.90;;;11.30;;
4521;SDS011;2273;48.464;11.926;2022-10-13T15:52:35;22.83;;;11.30;;
4521;SDS011;2273;48.464;11.926;2022-10-13T15:55:02;28.53;;;11.47;;
4521;SDS011;2273;48.464;11.926;2022-10-13T15:57:28;21.13;;;12.07;;
4521;SDS011;2273;48.464;11.926;2022-10-13T15:59:54;31.17;;;13.47;;
4521;SDS011;2273;48.464;11.926;2022-10-13T16:02:20;24.70;;;13.17;;
4521;SDS011;2273;48.464;11.926;2022-10-13T16:04:47;21.43;;;13.23;;